createdAt,value
2022-08-20T00:01:16.309Z,100.00
2022-08-20T00:03:44.707Z,100.00
2022-08-20T00:06:23.246Z,100.00
2022-08-20T00:08:50.964Z,100.00
2022-08-20T00:11:25.207Z,100.00
2022-08-20T00:13:59.418Z,100.00
2022-08-20T00:16:32.806Z,100.00
2022-08-20T00:19:02.684Z,100.00
2022-08-20T00:21:31.505Z,100.00
2022-08-20T00:23:59.159Z,100.00
2022-08-20T00:26:26.978Z,100.00
2022-08-20T00:28:54.693Z,100.00
2022-08-20T00:31:24.566Z,100.00
2022-08-20T00:33:53.671Z,100.00
2022-08-20T00:36:22.004Z,100.00
2022-08-20T00:38:58.972Z,100.00
2022-08-20T00:41:28.265Z,100.00
2022-08-20T00:44:21.915Z,100.00
2022-08-20T00:46:52.209Z,100.00
2022-08-20T00:49:28.049Z,100.00
2022-08-20T00:52:15.649Z,100.00
2022-08-20T00:54:57.971Z,100.00
2022-08-20T00:58:10.328Z,100.00
2022-08-20T01:00:45.580Z,100.00
2022-08-20T01:03:20.344Z,100.00
2022-08-20T01:05:54.952Z,100.00
2022-08-20T01:08:26.514Z,100.00
2022-08-20T01:11:10.413Z,100.00
2022-08-20T01:13:40.975Z,100.00
2022-08-20T01:16:23.666Z,100.00
2022-08-20T01:18:52.877Z,100.00
2022-08-20T01:21:27.497Z,100.00
2022-08-20T01:24:34.444Z,100.00
2022-08-20T01:27:06.263Z,100.00
2022-08-20T01:29:40.579Z,100.00
2022-08-20T01:32:07.679Z,100.00
2022-08-20T01:34:34.496Z,100.00
2022-08-20T01:37:01.687Z,100.00
2022-08-20T01:39:35.554Z,100.00
2022-08-20T01:42:25.076Z,100.00
2022-08-20T01:44:52.854Z,100.00
2022-08-20T01:47:29.717Z,100.00
2022-08-20T01:50:15.523Z,100.00
2022-08-20T01:52:56.117Z,100.00
2022-08-20T01:55:24.027Z,100.00
2022-08-20T01:57:51.177Z,100.00
2022-08-20T02:00:22.075Z,100.00
2022-08-20T02:02:49.730Z,100.00
2022-08-20T02:05:18.986Z,100.00
2022-08-20T02:07:46.762Z,100.00
2022-08-20T02:10:18.343Z,100.00
2022-08-20T02:12:45.271Z,100.00
2022-08-20T02:15:14.486Z,100.00
2022-08-20T02:17:42.942Z,100.00
2022-08-20T02:20:23.557Z,100.00
2022-08-20T02:22:59.009Z,100.00
2022-08-20T02:25:33.073Z,100.00
2022-08-20T02:28:09.080Z,100.00
2022-08-20T02:30:44.123Z,100.00
2022-08-20T02:33:17.302Z,100.00
2022-08-20T02:35:49.493Z,100.00
2022-08-20T02:38:17.262Z,100.00
2022-08-20T02:40:46.873Z,100.00
2022-08-20T02:43:14.490Z,100.00
2022-08-20T02:45:44.052Z,100.00
2022-08-20T02:48:21.473Z,100.00
2022-08-20T02:51:01.779Z,100.00
2022-08-20T02:53:36.363Z,100.00
2022-08-20T02:56:05.629Z,100.00
2022-08-20T02:58:33.179Z,100.00
2022-08-20T03:00:59.955Z,100.00
2022-08-20T03:03:26.809Z,100.00
2022-08-20T03:05:59.219Z,100.00
2022-08-20T03:08:30.399Z,100.00
2022-08-20T03:10:57.772Z,100.00
2022-08-20T03:13:25.881Z,100.00
2022-08-20T03:15:59.351Z,100.00
2022-08-20T03:18:35.873Z,100.00
2022-08-20T03:21:07.739Z,100.00
2022-08-20T03:23:40.363Z,100.00
2022-08-20T03:26:12.337Z,100.00
2022-08-20T03:28:42.643Z,100.00
2022-08-20T03:31:12.674Z,100.00
2022-08-20T03:33:52.953Z,100.00
2022-08-20T03:36:28.095Z,100.00
2022-08-20T03:39:00.427Z,100.00
2022-08-20T03:41:32.175Z,100.00
2022-08-20T03:43:59.245Z,100.00
2022-08-20T03:46:29.110Z,100.00
2022-08-20T03:48:58.707Z,100.00
2022-08-20T03:51:30.406Z,100.00
2022-08-20T03:53:58.733Z,100.00
2022-08-20T03:56:27.138Z,100.00
2022-08-20T03:58:54.670Z,100.00
2022-08-20T04:01:44.571Z,100.00
2022-08-20T04:04:12.306Z,100.00
2022-08-20T04:06:41.472Z,100.00
2022-08-20T04:09:12.150Z,100.00
2022-08-20T04:11:43.410Z,100.00
2022-08-20T04:14:11.979Z,100.00
2022-08-20T04:16:46.334Z,100.00
2022-08-20T04:19:15.583Z,100.00
2022-08-20T04:21:42.396Z,100.00
2022-08-20T04:24:22.731Z,100.00
2022-08-20T04:26:56.677Z,100.00
2022-08-20T04:29:35.677Z,100.00
2022-08-20T04:32:06.398Z,100.00
2022-08-20T04:34:48.811Z,100.00
2022-08-20T04:37:26.869Z,100.00
2022-08-20T04:40:14.439Z,100.00
2022-08-20T04:42:43.568Z,100.00
2022-08-20T04:45:11.368Z,100.00
2022-08-20T04:47:38.310Z,100.00
2022-08-20T04:52:52.819Z,100.00
2022-08-20T04:58:18.027Z,100.00
2022-08-20T05:01:01.087Z,100.00
2022-08-20T05:03:33.586Z,100.00
2022-08-20T05:06:01.791Z,100.00
2022-08-20T05:08:30.025Z,100.00
2022-08-20T05:11:21.533Z,100.00
2022-08-20T05:13:45.878Z,100.00
2022-08-20T05:16:20.820Z,100.00
2022-08-20T05:18:50.541Z,100.00
2022-08-20T05:21:21.197Z,100.00
2022-08-20T05:23:49.372Z,100.00
2022-08-20T05:26:23.680Z,100.00
2022-08-20T05:28:58.616Z,100.00
2022-08-20T05:31:33.287Z,100.00
2022-08-20T05:34:13.170Z,100.00
2022-08-20T05:36:52.153Z,100.00
2022-08-20T05:39:23.599Z,100.00
2022-08-20T05:41:59.089Z,100.00
2022-08-20T05:44:26.032Z,100.00
2022-08-20T05:46:53.075Z,100.00
2022-08-20T05:49:21.874Z,100.00
2022-08-20T05:51:53.176Z,100.00
2022-08-20T05:54:20.066Z,100.00
2022-08-20T05:56:47.396Z,100.00
2022-08-20T05:59:14.688Z,100.00
2022-08-20T06:01:43.226Z,100.00
2022-08-20T06:04:29.718Z,100.00
2022-08-20T06:07:07.389Z,100.00
2022-08-20T06:09:36.148Z,100.00
2022-08-20T06:12:08.515Z,100.00
2022-08-20T06:14:36.923Z,100.00
2022-08-20T06:17:15.181Z,100.00
2022-08-20T06:19:45.765Z,100.00
2022-08-20T06:22:18.965Z,100.00
2022-08-20T06:24:56.404Z,100.00
2022-08-20T06:27:24.806Z,100.00
2022-08-20T06:29:53.813Z,100.00
2022-08-20T06:32:32.473Z,100.00
2022-08-20T06:35:03.793Z,100.00
2022-08-20T06:37:33.706Z,100.00
2022-08-20T06:40:09.006Z,100.00
2022-08-20T06:42:36.904Z,100.00
2022-08-20T06:45:05.704Z,100.00
2022-08-20T06:47:34.397Z,100.00
2022-08-20T06:50:01.304Z,100.00
2022-08-20T06:52:48.078Z,100.00
2022-08-20T06:55:17.535Z,100.00
2022-08-20T06:57:45.472Z,100.00
2022-08-20T07:00:20.720Z,100.00
2022-08-20T07:02:48.100Z,100.00
2022-08-20T07:05:16.363Z,100.00
2022-08-20T07:07:51.093Z,100.00
2022-08-20T07:10:22.008Z,98.66
2022-08-20T07:12:51.116Z,100.00
2022-08-20T07:15:23.056Z,98.74
2022-08-20T07:18:01.730Z,99.36
2022-08-20T07:20:32.089Z,100.00
2022-08-20T07:23:00.832Z,100.00
2022-08-20T07:25:29.747Z,98.71
2022-08-20T07:28:19.439Z,97.74
2022-08-20T07:31:13.211Z,100.00
2022-08-20T07:33:42.646Z,100.00
2022-08-20T07:36:12.994Z,100.00
2022-08-20T07:38:40.829Z,100.00
2022-08-20T07:41:13.523Z,100.00
2022-08-20T07:43:43.232Z,99.54
2022-08-20T07:46:10.183Z,97.67
2022-08-20T07:48:46.148Z,95.41
2022-08-20T07:51:17.723Z,95.42
2022-08-20T07:53:47.800Z,92.40
2022-08-20T07:56:24.134Z,95.32
2022-08-20T07:58:58.931Z,95.11
2022-08-20T08:01:31.666Z,95.21
2022-08-20T08:04:00.600Z,94.24
2022-08-20T08:06:31.550Z,91.95
2022-08-20T08:09:14.523Z,91.85
2022-08-20T08:11:50.535Z,91.14
2022-08-20T08:14:29.693Z,88.60
2022-08-20T08:17:03.376Z,85.92
2022-08-20T08:19:38.640Z,84.38
2022-08-20T08:22:16.277Z,84.92
2022-08-20T08:24:57.464Z,84.56
2022-08-20T08:27:25.236Z,85.62
2022-08-20T08:29:51.893Z,86.18
2022-08-20T08:32:18.598Z,84.04
2022-08-20T08:34:47.555Z,79.21
2022-08-20T08:37:14.226Z,77.90
2022-08-20T08:39:43.759Z,76.63
2022-08-20T08:42:55.517Z,78.90
2022-08-20T08:45:22.673Z,77.67
2022-08-20T08:47:50.130Z,78.54
2022-08-20T08:50:52.879Z,81.28
2022-08-20T08:53:44.627Z,82.63
2022-08-20T08:56:14.552Z,79.96
2022-08-20T08:58:46.818Z,77.87
2022-08-20T09:01:55.573Z,76.67
2022-08-20T09:04:10.465Z,77.72
2022-08-20T09:06:39.403Z,74.01
2022-08-20T09:09:32.843Z,73.11
2022-08-20T09:12:28.798Z,73.80
2022-08-20T09:14:55.890Z,72.00
2022-08-20T09:17:23.833Z,74.07
2022-08-20T09:19:52.454Z,71.57
2022-08-20T09:22:25.877Z,71.11
2022-08-20T09:24:56.332Z,73.06
2022-08-20T09:27:22.977Z,70.75
2022-08-20T09:29:50.269Z,73.18
2022-08-20T09:32:23.566Z,72.33
2022-08-20T09:34:59.413Z,70.67
2022-08-20T09:37:36.661Z,71.22
2022-08-20T09:40:08.586Z,73.41
2022-08-20T09:42:41.433Z,77.63
2022-08-20T09:45:11.479Z,75.14
2022-08-20T09:47:54.979Z,77.68
2022-08-20T09:50:25.975Z,76.87
2022-08-20T09:52:57.301Z,71.70
2022-08-20T09:55:38.360Z,71.82
2022-08-20T09:58:43.441Z,73.68
2022-08-20T10:01:16.957Z,74.77
2022-08-20T10:03:49.442Z,71.54
2022-08-20T10:06:20.804Z,73.67
2022-08-20T10:08:50.105Z,71.26
2022-08-20T10:11:18.376Z,69.88
2022-08-20T10:13:45.927Z,67.95
2022-08-20T10:16:12.986Z,69.40
2022-08-20T10:18:39.937Z,67.01
2022-08-20T10:21:13.377Z,65.87
2022-08-20T10:23:40.840Z,68.33
2022-08-20T10:26:13.445Z,67.02
2022-08-20T10:28:43.422Z,65.73
2022-08-20T10:31:12.971Z,64.12
2022-08-20T10:33:42.081Z,61.45
2022-08-20T10:36:17.813Z,64.41
2022-08-20T10:38:49.047Z,64.32
2022-08-20T10:41:16.140Z,67.49
2022-08-20T10:43:45.098Z,65.58
2022-08-20T10:46:12.743Z,66.31
2022-08-20T10:48:40.039Z,67.98
2022-08-20T10:51:07.052Z,67.37
2022-08-20T10:53:36.895Z,65.71
2022-08-20T10:56:04.127Z,67.34
2022-08-20T10:58:39.719Z,66.95
2022-08-20T11:01:08.253Z,66.30
2022-08-20T11:03:35.730Z,68.91
2022-08-20T11:06:03.412Z,63.70
2022-08-20T11:08:33.421Z,64.35
2022-08-20T11:11:01.302Z,66.61
2022-08-20T11:13:28.165Z,66.98
2022-08-20T11:15:54.833Z,66.00
2022-08-20T11:18:24.608Z,67.42
2022-08-20T11:20:51.387Z,67.06
2022-08-20T11:23:18.132Z,67.28
2022-08-20T11:25:44.859Z,68.22
2022-08-20T11:28:12.981Z,64.07
2022-08-20T11:30:39.719Z,64.59
2022-08-20T11:33:07.402Z,59.29
2022-08-20T11:35:49.356Z,60.09
2022-08-20T11:38:19.039Z,59.43
2022-08-20T11:40:46.991Z,59.84
2022-08-20T11:43:17.299Z,60.64
2022-08-20T11:45:50.185Z,61.94
2022-08-20T11:48:17.880Z,61.43
2022-08-20T11:50:45.141Z,61.96
2022-08-20T11:53:11.805Z,55.30
2022-08-20T11:55:39.602Z,51.46
2022-08-20T11:58:07.130Z,50.80
2022-08-20T12:00:36.700Z,50.03
2022-08-20T12:03:08.723Z,51.55
2022-08-20T12:05:43.590Z,52.08
2022-08-20T12:08:25.094Z,49.75
2022-08-20T12:10:54.808Z,51.49
2022-08-20T12:13:21.567Z,50.87
2022-08-20T12:15:58.721Z,51.06
2022-08-20T12:18:27.096Z,50.40
2022-08-20T12:20:55.176Z,50.30
2022-08-20T12:23:21.840Z,51.32
2022-08-20T12:25:49.731Z,50.46
2022-08-20T12:28:17.095Z,48.81
2022-08-20T12:30:49.737Z,47.61
2022-08-20T12:33:16.482Z,46.76
2022-08-20T12:35:43.321Z,46.97
2022-08-20T12:38:10.044Z,45.15
2022-08-20T12:40:36.958Z,45.11
2022-08-20T12:43:04.950Z,45.95
2022-08-20T12:45:33.945Z,46.34
2022-08-20T12:48:12.172Z,45.74
2022-08-20T12:50:44.013Z,46.23
2022-08-20T12:53:10.822Z,46.97
2022-08-20T12:55:37.795Z,47.66
2022-08-20T12:58:10.021Z,45.03
2022-08-20T13:00:46.495Z,45.77
2022-08-20T13:03:19.808Z,44.23
2022-08-20T13:05:48.072Z,46.33
2022-08-20T13:08:15.056Z,45.61
2022-08-20T13:10:45.764Z,45.83
2022-08-20T13:13:17.459Z,48.31
2022-08-20T13:15:49.691Z,46.40
2022-08-20T13:18:16.645Z,45.91
2022-08-20T13:20:43.527Z,46.30
2022-08-20T13:23:10.509Z,47.04
2022-08-20T13:25:37.321Z,45.96
2022-08-20T13:28:05.584Z,44.40
2022-08-20T13:30:38.509Z,44.85
2022-08-20T13:33:05.279Z,44.93
2022-08-20T13:35:32.275Z,47.21
2022-08-20T13:37:59.384Z,48.44
2022-08-20T13:40:28.279Z,46.76
2022-08-20T13:42:54.946Z,47.22
2022-08-20T13:45:21.773Z,47.62
2022-08-20T13:47:54.745Z,47.54
2022-08-20T13:50:25.636Z,49.34
2022-08-20T13:52:54.310Z,47.84
2022-08-20T13:55:28.216Z,47.54
2022-08-20T13:57:57.542Z,48.16
2022-08-20T14:00:32.123Z,49.53
2022-08-20T14:03:02.470Z,50.49
2022-08-20T14:05:31.429Z,54.17
2022-08-20T14:08:22.709Z,53.92
2022-08-20T14:10:51.575Z,53.61
2022-08-20T14:13:23.385Z,52.18
2022-08-20T14:15:51.077Z,53.47
2022-08-20T14:18:18.806Z,52.90
2022-08-20T14:20:46.174Z,51.58
2022-08-20T14:23:15.165Z,51.64
2022-08-20T14:25:47.596Z,54.07
2022-08-20T14:28:25.082Z,53.36
2022-08-20T14:30:53.619Z,53.87
2022-08-20T14:33:23.698Z,51.29
2022-08-20T14:35:51.693Z,51.11
2022-08-20T14:38:18.424Z,52.05
2022-08-20T14:40:45.234Z,51.94
2022-08-20T14:43:12.126Z,52.71
2022-08-20T14:45:39.092Z,54.82
2022-08-20T14:48:09.206Z,55.20
2022-08-20T14:50:38.383Z,51.30
2022-08-20T14:53:06.681Z,51.22
2022-08-20T14:55:37.784Z,51.57
2022-08-20T14:58:14.930Z,52.51
2022-08-20T15:00:43.425Z,50.87
2022-08-20T15:03:10.236Z,50.76
2022-08-20T15:05:39.245Z,51.74
2022-08-20T15:08:07.698Z,52.03
2022-08-20T15:10:34.685Z,52.09
2022-08-20T15:13:02.427Z,52.71
2022-08-20T15:15:29.606Z,52.53
2022-08-20T15:18:02.400Z,51.39
2022-08-20T15:20:35.331Z,51.38
2022-08-20T15:23:04.636Z,51.67
2022-08-20T15:25:37.709Z,48.03
2022-08-20T15:28:09.807Z,46.76
2022-08-20T15:30:41.487Z,49.38
2022-08-20T15:33:10.435Z,48.93
2022-08-20T15:35:37.262Z,48.37
2022-08-20T15:38:04.118Z,48.64
2022-08-20T15:40:33.419Z,48.56
2022-08-20T15:43:03.606Z,49.94
2022-08-20T15:45:31.632Z,53.10
2022-08-20T15:48:21.026Z,54.82
2022-08-20T15:50:47.621Z,55.29
2022-08-20T15:53:36.575Z,56.48
2022-08-20T15:56:44.911Z,57.16
2022-08-20T15:59:39.209Z,58.82
2022-08-20T16:02:25.098Z,60.19
2022-08-20T16:05:21.491Z,60.00
2022-08-20T16:08:29.964Z,60.26
2022-08-20T16:11:23.035Z,60.23
2022-08-20T16:13:55.777Z,58.71
2022-08-20T16:16:44.798Z,60.50
2022-08-20T16:19:27.265Z,58.31
2022-08-20T16:21:59.009Z,61.29
2022-08-20T16:24:25.943Z,62.35
2022-08-20T16:27:13.565Z,61.00
2022-08-20T16:30:02.914Z,61.17
2022-08-20T16:32:50.368Z,61.18
2022-08-20T16:35:42.113Z,59.36
2022-08-20T16:38:59.156Z,61.68
2022-08-20T16:41:49.527Z,60.31
2022-08-20T16:44:22.250Z,61.82
2022-08-20T16:47:11.741Z,61.73
2022-08-20T16:49:51.982Z,60.45
2022-08-20T16:52:18.874Z,60.74
2022-08-20T16:54:45.926Z,60.82
2022-08-20T16:57:17.175Z,59.44
2022-08-20T17:00:10.942Z,59.38
2022-08-20T17:03:00.662Z,59.44
2022-08-20T17:05:56.063Z,57.55
2022-08-20T17:08:49.990Z,58.80
2022-08-20T17:11:33.144Z,60.03
2022-08-20T17:14:19.467Z,60.76
2022-08-20T17:16:52.112Z,61.89
2022-08-20T17:19:29.360Z,63.86
2022-08-20T17:22:17.947Z,65.08
2022-08-20T17:24:44.698Z,67.72
2022-08-20T17:27:29.005Z,69.05
2022-08-20T17:30:35.678Z,69.35
2022-08-20T17:33:17.918Z,70.54
2022-08-20T17:36:00.737Z,70.96
2022-08-20T17:38:39.159Z,71.34
2022-08-20T17:41:23.579Z,74.76
2022-08-20T17:44:02.387Z,73.52
2022-08-20T17:46:42.422Z,73.02
2022-08-20T17:49:17.591Z,73.61
2022-08-20T17:51:54.776Z,73.21
2022-08-20T17:54:32.859Z,74.13
2022-08-20T17:57:14.278Z,73.67
2022-08-20T18:00:00.599Z,74.55
2022-08-20T18:02:31.200Z,75.44
2022-08-20T18:04:58.133Z,75.51
2022-08-20T18:07:55.574Z,75.85
2022-08-20T18:10:27.230Z,76.66
2022-08-20T18:13:45.143Z,77.05
2022-08-20T18:16:41.139Z,77.24
2022-08-20T18:20:21.181Z,78.26
2022-08-20T18:23:14.574Z,78.53
2022-08-20T18:26:00.835Z,79.19
2022-08-20T18:28:58.536Z,80.80
2022-08-20T18:31:51.742Z,80.77
2022-08-20T18:34:36.740Z,81.11
2022-08-20T18:37:12.626Z,82.16
2022-08-20T18:39:48.844Z,83.46
2022-08-20T18:42:21.871Z,85.29
2022-08-20T18:44:53.902Z,85.00
2022-08-20T18:47:34.195Z,85.97
2022-08-20T18:50:16.166Z,85.81
2022-08-20T18:53:04.925Z,87.56
2022-08-20T18:55:47.785Z,87.74
2022-08-20T18:59:06.779Z,87.95
2022-08-20T19:01:38.712Z,88.68
2022-08-20T19:04:28.018Z,89.28
2022-08-20T19:07:06.175Z,90.10
2022-08-20T19:10:04.084Z,90.31
2022-08-20T19:13:29.687Z,91.49
2022-08-20T19:16:13.344Z,90.29
2022-08-20T19:18:55.615Z,91.97
2022-08-20T19:21:37.516Z,91.25
2022-08-20T19:24:21.310Z,92.22
2022-08-20T19:27:00.210Z,92.28
2022-08-20T19:29:34.428Z,92.85
2022-08-20T19:32:08.429Z,93.01
2022-08-20T19:34:39.391Z,93.57
2022-08-20T19:37:35.604Z,93.13
2022-08-20T19:40:28.582Z,93.93
2022-08-20T19:43:03.104Z,93.67
2022-08-20T19:45:46.475Z,94.45
2022-08-20T19:48:55.690Z,94.26
2022-08-20T19:51:45.826Z,95.03
2022-08-20T19:54:25.983Z,94.84
2022-08-20T19:57:07.469Z,96.26
2022-08-20T19:59:35.104Z,97.36
2022-08-20T20:02:20.447Z,97.97
2022-08-20T20:04:54.919Z,98.30
2022-08-20T20:07:39.831Z,98.76
2022-08-20T20:10:31.765Z,98.96
2022-08-20T20:13:08.239Z,100.00
2022-08-20T20:15:37.827Z,100.00
2022-08-20T20:18:07.270Z,100.00
2022-08-20T20:20:57.018Z,100.00
2022-08-20T20:23:45.525Z,100.00
2022-08-20T20:26:20.245Z,100.00
2022-08-20T20:29:00.458Z,100.00
2022-08-20T20:31:44.888Z,100.00
2022-08-20T20:34:15.581Z,100.00
2022-08-20T20:36:48.298Z,100.00
2022-08-20T20:39:36.849Z,100.00
2022-08-20T20:42:09.302Z,100.00
2022-08-20T20:44:41.777Z,100.00
2022-08-20T20:47:23.051Z,100.00
2022-08-20T20:50:06.675Z,100.00
2022-08-20T20:52:48.783Z,100.00
2022-08-20T20:55:21.296Z,100.00
2022-08-20T20:57:50.929Z,100.00
2022-08-20T21:00:23.223Z,100.00
2022-08-20T21:02:50.117Z,100.00
2022-08-20T21:05:24.933Z,100.00
2022-08-20T21:08:00.723Z,100.00
2022-08-20T21:10:35.055Z,100.00
2022-08-20T21:13:04.692Z,100.00
2022-08-20T21:15:34.775Z,100.00
2022-08-20T21:18:07.074Z,100.00
2022-08-20T21:20:34.797Z,100.00
2022-08-20T21:23:01.489Z,100.00
2022-08-20T21:25:32.332Z,100.00
2022-08-20T21:28:00.011Z,100.00
2022-08-20T21:30:28.193Z,100.00
2022-08-20T21:32:55.290Z,100.00
2022-08-20T21:35:22.459Z,100.00
2022-08-20T21:37:49.310Z,100.00
2022-08-20T21:40:21.454Z,100.00
2022-08-20T21:42:49.168Z,100.00
2022-08-20T21:45:18.405Z,100.00
2022-08-20T21:47:46.866Z,100.00
2022-08-20T21:50:21.205Z,100.00
2022-08-20T21:52:59.523Z,100.00
2022-08-20T21:55:39.270Z,100.00
2022-08-20T21:58:09.285Z,100.00
2022-08-20T22:00:55.871Z,100.00
2022-08-20T22:03:35.024Z,100.00
2022-08-20T22:06:11.853Z,100.00
2022-08-20T22:08:39.443Z,100.00
2022-08-20T22:11:10.760Z,100.00
2022-08-20T22:13:45.569Z,100.00
2022-08-20T22:16:19.438Z,100.00
2022-08-20T22:18:49.298Z,100.00
2022-08-20T22:21:31.413Z,100.00
2022-08-20T22:24:04.014Z,100.00
2022-08-20T22:26:35.885Z,100.00
2022-08-20T22:29:04.112Z,100.00
2022-08-20T22:31:36.312Z,100.00
2022-08-20T22:34:05.219Z,100.00
2022-08-20T22:36:33.439Z,100.00
2022-08-20T22:39:00.937Z,100.00
2022-08-20T22:41:28.296Z,100.00
2022-08-20T22:43:56.292Z,100.00
2022-08-20T22:46:30.300Z,100.00
2022-08-20T22:48:57.505Z,100.00
2022-08-20T22:51:38.730Z,100.00
2022-08-20T22:54:11.223Z,100.00
2022-08-20T22:56:38.742Z,100.00
2022-08-20T22:59:08.370Z,100.00
2022-08-20T23:01:36.642Z,100.00
2022-08-20T23:04:25.052Z,100.00
2022-08-20T23:06:55.620Z,100.00
2022-08-20T23:09:22.998Z,100.00
2022-08-20T23:11:52.435Z,100.00
2022-08-20T23:14:21.877Z,100.00
2022-08-20T23:17:01.721Z,100.00
2022-08-20T23:19:28.988Z,100.00
2022-08-20T23:21:58.742Z,100.00
2022-08-20T23:24:26.035Z,100.00
2022-08-20T23:26:53.632Z,100.00
2022-08-20T23:29:25.510Z,100.00
2022-08-20T23:31:56.048Z,100.00
2022-08-20T23:34:24.121Z,100.00
2022-08-20T23:36:52.570Z,100.00
2022-08-20T23:39:20.311Z,100.00
2022-08-20T23:41:48.177Z,100.00
2022-08-20T23:44:25.222Z,100.00
2022-08-20T23:47:02.141Z,100.00
2022-08-20T23:49:32.155Z,100.00
2022-08-20T23:52:00.696Z,100.00
2022-08-20T23:54:30.794Z,100.00
2022-08-20T23:56:57.886Z,100.00
2022-08-20T23:59:25.503Z,100.00
